IBE0545 LEMD-LPPR
Flight info
| Callsign | IBE0545 |
|---|---|
| Flight time | N/A |
| Altitude | 30000 |
| Route | BARDI DCT RIVRO DCT PESUL |
| Aircraft | A320/M-SDE3FGHIRWY/LB1 |
Departure
| Time | 2026-05-03 20:59 |
|---|---|
| Airport | Adolfo Suárez Madrid–Barajas Airport (LEMD) |
Arrival
| Time | N/A |
|---|---|
| Airport | Francisco de Sá Carneiro Airport (LPPR) |
| Time | Latitude | Longitude | Altitude | Speed | Heading |
|---|---|---|---|---|---|
| 2026-05-03 20:39 | 40.49401 | -3.58981 | 1983 ft | 0 kts | 268° |
| 2026-05-03 20:49 | 40.49401 | -3.58980 | 1983 ft | 1 kts | 268° |
| 2026-05-03 20:49 | 40.49403 | -3.58949 | 1982 ft | 4 kts | 256° |
| 2026-05-03 20:49 | 40.49413 | -3.58918 | 1980 ft | 4 kts | 225° |
| 2026-05-03 20:49 | 40.49431 | -3.58904 | 1980 ft | 1 kts | 179° |
| 2026-05-03 20:50 | 40.49436 | -3.58904 | 1980 ft | 0 kts | 179° |
| 2026-05-03 20:53 | 40.49408 | -3.58904 | 1980 ft | 5 kts | 179° |
| 2026-05-03 20:53 | 40.49379 | -3.58903 | 1984 ft | 6 kts | 178° |
| 2026-05-03 20:53 | 40.49291 | -3.58873 | 1982 ft | 13 kts | 147° |
| 2026-05-03 20:53 | 40.49242 | -3.58790 | 1980 ft | 11 kts | 100° |
| 2026-05-03 20:54 | 40.49242 | -3.58688 | 1983 ft | 12 kts | 92° |
| 2026-05-03 20:54 | 40.49244 | -3.58470 | 1980 ft | 14 kts | 96° |
| 2026-05-03 20:54 | 40.49238 | -3.58350 | 1980 ft | 12 kts | 87° |
| 2026-05-03 20:55 | 40.49243 | -3.58231 | 1983 ft | 13 kts | 86° |
| 2026-05-03 20:55 | 40.49244 | -3.58110 | 1980 ft | 16 kts | 90° |
| 2026-05-03 20:55 | 40.49245 | -3.57974 | 1980 ft | 14 kts | 89° |
| 2026-05-03 20:55 | 40.49244 | -3.57854 | 1980 ft | 12 kts | 89° |
| 2026-05-03 20:56 | 40.49244 | -3.57749 | 1980 ft | 11 kts | 89° |
| 2026-05-03 20:56 | 40.49245 | -3.57661 | 1980 ft | 9 kts | 86° |
| 2026-05-03 20:56 | 40.49254 | -3.57612 | 1980 ft | 0 kts | 70° |
| 2026-05-03 20:56 | 40.49257 | -3.57603 | 1982 ft | 5 kts | 66° |
| 2026-05-03 20:57 | 40.49274 | -3.57558 | 1982 ft | 5 kts | 64° |
| 2026-05-03 20:57 | 40.49287 | -3.57524 | 1980 ft | 3 kts | 63° |
| 2026-05-03 20:57 | 40.49319 | -3.57469 | 1982 ft | 12 kts | 28° |
| 2026-05-03 20:57 | 40.49403 | -3.57463 | 1982 ft | 16 kts | 356° |
| 2026-05-03 20:58 | 40.49672 | -3.57467 | 1980 ft | 72 kts | 0° |
| 2026-05-03 20:58 | 40.50386 | -3.57473 | 1981 ft | 130 kts | 359° |
| 2026-05-03 20:58 | 40.51454 | -3.57485 | 1990 ft | 174 kts | 356° |
| 2026-05-03 20:58 | 40.52674 | -3.57469 | 2555 ft | 175 kts | 359° |
| 2026-05-03 20:59 | 40.53911 | -3.57443 | 3169 ft | 178 kts | 359° |
| 2026-05-03 20:59 | 40.55169 | -3.57375 | 3659 ft | 190 kts | 6° |
| 2026-05-03 20:59 | 40.56511 | -3.56944 | 3976 ft | 209 kts | 14° |
| 2026-05-03 20:59 | 40.57985 | -3.56404 | 4264 ft | 232 kts | 14° |
| 2026-05-03 21:00 | 40.59041 | -3.56026 | 4597 ft | 241 kts | 14° |
| 2026-05-03 21:00 | 40.60110 | -3.55619 | 5153 ft | 241 kts | 14° |
| 2026-05-03 21:00 | 40.62255 | -3.54782 | 6311 ft | 241 kts | 14° |
| 2026-05-03 21:00 | 40.63889 | -3.54245 | 7052 ft | 244 kts | 5° |
| 2026-05-03 21:01 | 40.65598 | -3.54079 | 7750 ft | 249 kts | 1° |
| 2026-05-03 21:01 | 40.66161 | -3.54032 | 7981 ft | 251 kts | 1° |